Time;durP1;ratioP1;P1;durP2;ratioP2;P2;SDS_P1;SDS_P2;PMS_P1;PMS_P2;Temp;Humidity;BMP_temperature;BMP_pressure;BME280_temperature;BME280_humidity;BME280_pressure;Samples;Min_cycle;Max_cycle;Signal;HPM_P1;HPM_P2
2022/11/04 00:01:52;;;;;;;31.08;21.55;;;;;;;11.39;100.00;97786.53;5013793;28;20639;-60
2022/11/04 00:04:21;;;;;;;33.10;20.98;;;;;;;11.06;100.00;97792.84;5008962;28;20492;-60
2022/11/04 00:06:47;;;;;;;44.33;39.67;;;;;;;10.93;100.00;97816.34;5012146;28;20058;-60
2022/11/04 00:09:20;;;;;;;36.38;32.63;;;;;;;10.69;100.00;97800.94;5011216;28;20049;-60
2022/11/04 00:14:31;;;;;;;36.33;25.90;;;;;;;10.33;100.00;97808.91;5011716;28;20050;-60
2022/11/04 00:33:24;;;;;;;32.17;18.75;;;;;;;9.88;100.00;97780.38;5015144;28;20087;-60
2022/11/04 00:33:44;;;;;;;29.88;19.45;;;;;;;9.79;100.00;97772.97;5013229;28;20590;-60
2022/11/04 00:36:10;;;;;;;29.20;18.30;;;;;;;9.87;100.00;97783.81;5014076;28;20566;-60
2022/11/04 00:38:35;;;;;;;29.80;17.67;;;;;;;9.82;100.00;97772.03;5014029;28;20136;-61
2022/11/04 00:41:01;;;;;;;27.20;17.85;;;;;;;9.75;100.00;97789.31;5012695;28;20049;-61
2022/11/04 00:43:26;;;;;;;27.02;17.73;;;;;;;9.71;100.00;97774.94;5013568;28;20397;-60
2022/11/04 00:45:52;;;;;;;37.10;18.80;;;;;;;9.70;100.00;97774.97;5014096;28;20083;-60
2022/11/04 00:48:17;;;;;;;28.90;18.02;;;;;;;9.69;100.00;97771.56;5013257;28;20063;-61
2022/11/04 00:50:43;;;;;;;30.05;18.30;;;;;;;9.54;100.00;97744.72;5012056;28;20067;-60
2022/11/04 00:53:09;;;;;;;31.13;19.17;;;;;;;9.53;100.00;97747.31;5011482;28;20048;-61
2022/11/04 00:55:34;;;;;;;29.73;17.77;;;;;;;9.59;100.00;97755.63;5012958;28;20041;-59
2022/11/04 00:58:00;;;;;;;36.42;18.98;;;;;;;9.59;100.00;97754.78;5010026;28;20049;-61
2022/11/04 01:00:25;;;;;;;32.22;18.33;;;;;;;9.59;100.00;97754.78;5010692;28;20152;-61
2022/11/04 01:02:51;;;;;;;31.67;20.05;;;;;;;9.53;100.00;97744.75;5011129;28;20470;-60
2022/11/04 01:05:17;;;;;;;32.35;19.80;;;;;;;9.45;100.00;97727.06;5011654;28;20080;-61
2022/11/04 01:07:42;;;;;;;36.20;32.60;;;;;;;9.55;100.00;97740.41;5013964;28;20058;-60
2022/11/04 01:10:08;;;;;;;33.38;21.23;;;;;;;9.48;100.00;97729.53;5014885;28;20072;-61
2022/11/04 01:12:34;;;;;;;33.10;26.38;;;;;;;9.54;100.00;97747.28;5013491;28;20490;-60
2022/11/04 01:15:00;;;;;;;33.88;25.52;;;;;;;9.49;100.00;97748.28;5009814;28;20045;-60
2022/11/04 01:17:25;;;;;;;31.25;25.25;;;;;;;9.41;100.00;97733.16;5011447;28;20124;-60
2022/11/04 01:19:51;;;;;;;27.33;18.48;;;;;;;9.48;100.00;97737.19;5012173;28;20592;-60
2022/11/04 01:22:20;;;;;;;29.45;18.92;;;;;;;9.38;100.00;97719.59;5013415;28;20030;-61
2022/11/04 01:24:45;;;;;;;34.20;21.13;;;;;;;9.48;100.00;97731.25;5014035;28;20087;-61
2022/11/04 01:27:11;;;;;;;28.27;17.05;;;;;;;9.47;100.00;97730.41;5013742;28;20385;-61
2022/11/04 01:29:37;;;;;;;33.65;19.80;;;;;;;9.49;100.00;97731.22;5013114;28;20038;-61
2022/11/04 01:32:02;;;;;;;28.60;17.63;;;;;;;9.41;100.00;97697.34;5013520;28;20543;-60
2022/11/04 01:34:28;;;;;;;31.20;19.30;;;;;;;9.53;100.00;97716.59;5015036;28;20124;-60
2022/11/04 01:36:54;;;;;;;29.45;19.58;;;;;;;9.55;100.00;97712.25;5017104;28;20057;-64
2022/11/04 01:39:19;;;;;;;31.52;19.10;;;;;;;9.64;100.00;97717.09;5016762;28;20132;-60
2022/11/04 01:41:45;;;;;;;30.77;19.33;;;;;;;9.66;100.00;97717.91;5017450;28;20041;-60
2022/11/04 01:44:41;;;;;;;33.97;21.92;;;;;;;9.71;100.00;97710.94;5016160;28;20077;-60
2022/11/04 01:47:15;;;;;;;31.80;19.63;;;;;;;9.73;100.00;97713.44;5016652;28;20045;-60
2022/11/04 01:49:41;;;;;;;33.03;20.15;;;;;;;9.74;100.00;97704.88;5017604;28;20453;-60
2022/11/04 01:52:15;;;;;;;38.15;20.38;;;;;;;9.75;100.00;97697.16;5017473;28;20049;-60
2022/11/04 01:54:45;;;;;;;26.73;16.33;;;;;;;9.87;100.00;97703.63;5015896;28;20049;-65
2022/11/04 01:57:17;;;;;;;32.17;20.63;;;;;;;9.87;100.00;97699.34;5015318;28;20052;-60
2022/11/04 01:59:44;;;;;;;37.35;21.15;;;;;;;9.96;100.00;97701.63;5016158;28;20052;-60
2022/11/04 02:02:09;;;;;;;37.70;20.55;;;;;;;9.97;100.00;97698.16;5016541;28;20053;-60
2022/11/04 02:04:37;;;;;;;37.75;20.00;;;;;;;10.00;100.00;97695.50;5015385;28;20253;-60
2022/11/04 02:07:06;;;;;;;35.40;22.35;;;;;;;9.95;100.00;97688.84;5014988;28;20058;-60
2022/11/04 02:09:33;;;;;;;37.72;20.63;;;;;;;9.97;100.00;97685.34;5017267;28;20049;-60
2022/11/04 02:14:47;;;;;;;37.03;20.83;;;;;;;10.03;100.00;97677.47;5014327;28;20052;-60
2022/11/04 02:17:18;;;;;;;36.15;20.85;;;;;;;10.04;100.00;97671.47;5016929;28;20071;-60
2022/11/04 02:19:53;;;;;;;33.88;19.50;;;;;;;10.03;100.00;97672.38;5015510;28;20038;-60
2022/11/04 02:22:35;;;;;;;37.67;22.48;;;;;;;10.04;100.00;97670.66;5016118;28;20477;-60
2022/11/04 02:25:13;;;;;;;33.55;19.42;;;;;;;10.09;100.00;97671.34;5016827;28;20050;-60
2022/11/04 02:27:51;;;;;;;31.52;20.23;;;;;;;10.10;100.00;97666.16;4999995;28;20046;-60
2022/11/04 02:30:18;;;;;;;35.47;20.13;;;;;;;10.06;100.00;97651.75;5015387;28;20045;-60
2022/11/04 02:33:10;;;;;;;34.58;20.90;;;;;;;10.10;100.00;97660.19;5016629;28;20074;-60
2022/11/04 02:35:54;;;;;;;35.85;21.98;;;;;;;10.10;100.00;97650.78;5016510;28;20068;-60
2022/11/04 02:38:42;;;;;;;33.03;19.70;;;;;;;10.09;100.00;97640.59;5015618;28;20411;-59
2022/11/04 02:41:39;;;;;;;33.42;20.58;;;;;;;9.98;100.00;97627.31;5015899;28;20260;-60
2022/11/04 02:44:26;;;;;;;33.47;19.65;;;;;;;10.09;100.00;97631.19;5015134;28;20061;-61
2022/11/04 02:46:59;;;;;;;33.92;19.77;;;;;;;10.15;100.00;97631.88;5015180;28;20049;-60
2022/11/04 02:49:33;;;;;;;37.80;22.30;;;;;;;10.20;100.00;97632.59;5015864;28;20045;-60
2022/11/04 02:52:07;;;;;;;37.47;20.52;;;;;;;10.15;100.00;97619.94;5013404;28;20053;-60
2022/11/04 02:54:54;;;;;;;35.25;20.52;;;;;;;10.27;100.00;97639.19;5011830;28;20503;-64
2022/11/04 02:57:29;;;;;;;31.63;19.98;;;;;;;10.26;100.00;97637.50;5013982;28;20041;-61
2022/11/04 03:00:07;;;;;;;35.05;19.55;;;;;;;10.20;100.00;97620.63;5015137;28;20030;-60
2022/11/04 03:02:39;;;;;;;34.25;19.58;;;;;;;10.20;100.00;97617.22;5015165;28;20042;-60
2022/11/04 03:05:08;;;;;;;34.47;19.92;;;;;;;10.28;100.00;97628.03;5014485;28;20037;-61
2022/11/04 03:07:38;;;;;;;36.38;20.38;;;;;;;10.35;100.00;97638.06;5014170;28;20050;-60
2022/11/04 03:10:36;;;;;;;32.85;21.42;;;;;;;10.43;100.00;97645.47;5014145;28;20057;-61
2022/11/04 03:13:18;;;;;;;31.88;21.52;;;;;;;10.49;100.00;97643.53;5013655;28;20053;-61
2022/11/04 03:16:00;;;;;;;36.42;19.73;;;;;;;10.54;100.00;97639.06;5004429;28;20053;-60
2022/11/04 03:18:35;;;;;;;30.50;19.60;;;;;;;10.47;100.00;97621.41;5015126;28;20072;-60
2022/11/04 03:21:05;;;;;;;32.05;20.15;;;;;;;10.56;100.00;97630.50;5015895;28;20913;-61
2022/11/04 03:23:31;;;;;;;31.33;19.75;;;;;;;10.60;100.00;97632.91;5017355;28;20049;-60
2022/11/04 03:26:09;;;;;;;29.73;18.65;;;;;;;10.51;100.00;97615.28;5018739;28;20095;-59
2022/11/04 03:28:52;;;;;;;33.58;20.17;;;;;;;10.63;100.00;97635.34;5005066;28;20042;-60
2022/11/04 03:31:35;;;;;;;31.35;19.67;;;;;;;10.52;100.00;97611.84;5016430;28;20564;-61
2022/11/04 03:34:01;;;;;;;35.88;21.20;;;;;;;10.53;100.00;97618.63;5016608;28;20045;-60
2022/11/04 03:36:28;;;;;;;29.67;20.75;;;;;;;10.54;100.00;97622.84;5015208;28;20069;-60
2022/11/04 03:38:54;;;;;;;37.83;20.60;;;;;;;10.52;100.00;97630.59;5015155;28;20133;-61
2022/11/04 03:41:47;;;;;;;34.35;20.00;;;;;;;10.56;100.00;97641.59;5017020;28;20050;-61
2022/11/04 03:44:13;;;;;;;37.33;21.60;;;;;;;10.44;100.00;97621.50;5014721;28;20416;-61
2022/11/04 03:46:39;;;;;;;32.67;21.33;;;;;;;10.49;100.00;97635.00;5015598;28;20050;-61
2022/11/04 03:49:07;;;;;;;34.97;21.60;;;;;;;10.51;100.00;97644.31;5013886;28;20151;-60
2022/11/04 03:51:32;;;;;;;36.65;20.90;;;;;;;10.51;100.00;97635.78;4998482;28;20037;-60
2022/11/04 03:53:58;;;;;;;36.30;22.42;;;;;;;10.53;100.00;97637.41;5014973;28;20056;-64
2022/11/04 03:56:44;;;;;;;37.95;22.17;;;;;;;10.44;100.00;97616.38;5013550;28;20041;-60
2022/11/04 03:59:37;;;;;;;;;;;;;;;10.56;100.00;97645.88;5016067;28;20045;-60
2022/11/04 04:02:43;;;;;;;28.15;17.52;;;;;;;10.77;100.00;97640.00;5016372;28;19920;-60
2022/11/04 04:05:28;;;;;;;35.83;19.67;;;;;;;10.83;100.00;97635.47;4897800;29;20058;-59
2022/11/04 04:08:09;;;;;;;33.05;20.58;;;;;;;10.79;100.00;97630.50;4898760;29;20055;-59
2022/11/04 04:10:42;;;;;;;33.45;21.45;;;;;;;10.80;100.00;97630.47;4917375;29;20059;-60
2022/11/04 04:13:47;;;;;;;33.80;21.17;;;;;;;10.83;100.00;97640.59;4916322;29;20047;-62
2022/11/04 04:16:19;;;;;;;35.13;20.58;;;;;;;10.68;100.00;97632.63;4895321;29;20047;-60
2022/11/04 04:18:53;;;;;;;37.80;21.08;;;;;;;10.61;100.00;97626.06;4917741;29;20040;-61
2022/11/04 04:21:26;;;;;;;28.70;18.73;;;;;;;10.83;100.00;97634.63;4916962;29;20055;-62
2022/11/04 04:29:30;;;;;;;41.00;22.45;;;;;;;10.72;100.00;97650.41;4916447;29;20566;-60
2022/11/04 04:31:59;;;;;;;41.40;23.08;;;;;;;10.57;100.00;97640.69;4916021;29;20052;-60
2022/11/04 04:34:28;;;;;;;38.05;22.77;;;;;;;10.63;100.00;97663.56;4915882;29;20048;-63
2022/11/04 04:37:02;;;;;;;41.17;22.42;;;;;;;10.63;100.00;97660.16;4915749;29;20079;-60
2022/11/04 04:45:36;;;;;;;39.88;23.95;;;;;;;10.54;100.00;97676.69;5032701;28;20468;-62
2022/11/04 04:48:04;;;;;;;39.10;22.80;;;;;;;10.46;100.00;97687.19;5034185;28;20124;-60
2022/11/04 04:50:41;;;;;;;48.20;27.88;;;;;;;10.25;100.00;97679.38;5034561;28;20052;-60
2022/11/04 04:53:07;;;;;;;44.33;26.08;;;;;;;10.54;100.00;97753.56;5035153;28;20041;-61
2022/11/04 04:55:32;;;;;;;43.70;24.30;;;;;;;10.54;100.00;97725.38;5035133;28;20047;-61
2022/11/04 04:57:58;;;;;;;41.10;24.95;;;;;;;10.59;100.00;97728.63;5016079;28;20029;-61
2022/11/04 05:00:24;;;;;;;40.42;23.23;;;;;;;10.38;100.00;97709.66;5033653;28;20548;-65
2022/11/04 05:02:49;;;;;;;42.42;23.10;;;;;;;10.35;100.00;97704.66;5021111;28;20049;-61
2022/11/04 05:05:16;;;;;;;38.22;22.90;;;;;;;10.42;100.00;97711.25;5034870;28;20188;-60
2022/11/04 05:07:41;;;;;;;35.22;22.25;;;;;;;10.49;100.00;97720.41;5012144;28;20107;-60
2022/11/04 05:10:12;;;;;;;42.15;24.05;;;;;;;10.47;100.00;97719.63;5015729;28;20041;-60
2022/11/04 05:15:24;;;;;;;41.45;23.17;;;;;;;10.45;100.00;97716.25;5034469;28;20463;-62
2022/11/04 05:17:58;;;;;;;41.72;23.13;;;;;;;10.36;100.00;97690.09;5033680;28;20458;-62
2022/11/04 05:20:24;;;;;;;43.28;24.13;;;;;;;10.41;100.00;97718.97;5032233;28;20045;-62
2022/11/04 05:22:50;;;;;;;36.95;23.23;;;;;;;10.27;100.00;97700.69;5033294;28;20427;-61
2022/11/04 05:25:16;;;;;;;41.25;22.17;;;;;;;10.37;100.00;97713.13;5034310;28;20835;-64
2022/11/04 05:27:43;;;;;;;44.53;25.30;;;;;;;10.30;100.00;97693.72;5034173;28;20048;-61
2022/11/04 05:30:09;;;;;;;40.67;23.48;;;;;;;10.42;100.00;97716.38;5035363;28;20166;-63
2022/11/04 05:32:34;;;;;;;43.30;23.17;;;;;;;10.41;100.00;97713.84;5034340;28;20057;-63
2022/11/04 05:35:00;;;;;;;39.53;22.35;;;;;;;10.41;100.00;97718.97;5033151;28;20601;-63
2022/11/04 05:37:25;;;;;;;40.40;24.35;;;;;;;10.44;100.00;97727.38;5033162;28;20049;-63
2022/11/04 05:39:51;;;;;;;42.88;25.70;;;;;;;10.46;100.00;97723.06;5013874;28;20099;-62
2022/11/04 05:42:18;;;;;;;44.15;24.73;;;;;;;10.48;100.00;97723.03;5018549;28;20041;-63
2022/11/04 05:44:43;;;;;;;36.97;22.67;;;;;;;10.44;100.00;97734.25;5033515;28;20079;-62
2022/11/04 05:47:09;;;;;;;38.78;22.92;;;;;;;10.31;100.00;97721.00;5034727;28;20143;-63
2022/11/04 05:49:34;;;;;;;44.42;25.02;;;;;;;10.39;100.00;97748.94;5033295;28;20583;-62
2022/11/04 05:52:00;;;;;;;37.60;22.70;;;;;;;10.39;100.00;97754.06;5033050;28;20045;-62
2022/11/04 05:54:26;;;;;;;42.47;23.35;;;;;;;10.39;100.00;97756.63;5032651;28;20140;-62
2022/11/04 05:56:52;;;;;;;44.72;24.73;;;;;;;10.39;100.00;97757.47;5034067;28;20049;-62
2022/11/04 05:59:17;;;;;;;41.35;25.17;;;;;;;10.31;100.00;97738.13;5000054;28;20047;-63
2022/11/04 06:01:43;;;;;;;44.13;27.17;;;;;;;10.41;100.00;97749.72;5032006;28;20060;-63
2022/11/04 06:04:15;;;;;;;43.75;25.38;;;;;;;10.34;100.00;97743.13;5033260;28;20052;-62
2022/11/04 06:06:41;;;;;;;44.72;25.77;;;;;;;10.39;100.00;97736.97;5031042;28;20425;-61
2022/11/04 06:09:06;;;;;;;43.58;25.20;;;;;;;10.46;100.00;97742.72;5033951;28;20403;-59
2022/11/04 06:11:33;;;;;;;54.05;26.23;;;;;;;10.52;100.00;97761.28;5030649;28;20050;-59
2022/11/04 06:13:59;;;;;;;49.72;26.73;;;;;;;10.47;100.00;97772.59;5029235;28;20045;-60
2022/11/04 06:16:25;;;;;;;46.20;24.63;;;;;;;10.39;100.00;97752.34;5011898;28;20049;-60
2022/11/04 06:18:51;;;;;;;39.80;23.85;;;;;;;10.51;100.00;97766.47;5033211;28;20594;-59
2022/11/04 06:21:20;;;;;;;46.45;24.52;;;;;;;10.51;100.00;97779.28;5033125;28;20791;-61
2022/11/04 06:23:46;;;;;;;41.42;25.83;;;;;;;10.44;100.00;97775.22;5032761;28;20466;-61
2022/11/04 06:26:12;;;;;;;48.17;26.88;;;;;;;10.45;100.00;97779.47;5034783;28;20052;-62
2022/11/04 06:28:38;;;;;;;43.38;24.60;;;;;;;10.56;100.00;97799.66;5034005;28;20415;-60
2022/11/04 06:31:06;;;;;;;45.65;25.00;;;;;;;10.59;100.00;97804.66;5034796;28;20052;-61
2022/11/04 06:33:32;;;;;;;43.80;26.05;;;;;;;10.50;100.00;97790.44;5032375;28;20143;-60
2022/11/04 06:36:03;;;;;;;39.88;25.48;;;;;;;10.50;100.00;97790.44;5032063;28;20338;-60
2022/11/04 06:38:30;;;;;;;44.80;25.98;;;;;;;10.49;100.00;97783.63;5033590;28;20100;-62
2022/11/04 06:40:56;;;;;;;42.60;26.55;;;;;;;10.50;100.00;97787.88;5033821;28;20052;-60
2022/11/04 06:43:22;;;;;;;41.22;24.77;;;;;;;10.63;100.00;97806.25;5035351;28;20487;-60
2022/11/04 06:45:58;;;;;;;40.75;25.33;;;;;;;10.54;100.00;97785.16;5035151;28;20184;-60
2022/11/04 06:48:25;;;;;;;43.42;25.33;;;;;;;10.62;100.00;97794.31;5034947;28;20045;-60
2022/11/04 06:50:50;;;;;;;39.55;25.00;;;;;;;10.59;100.00;97792.69;5036336;28;20470;-60
2022/11/04 06:53:16;;;;;;;43.67;25.33;;;;;;;10.63;100.00;97804.53;5016588;28;20095;-61
2022/11/04 06:55:42;;;;;;;42.08;26.90;;;;;;;10.56;100.00;97799.66;5032416;28;20035;-60
2022/11/04 06:58:08;;;;;;;48.97;28.42;;;;;;;10.59;100.00;97823.44;5031432;28;20124;-60
2022/11/04 07:00:33;;;;;;;49.92;30.10;;;;;;;10.63;100.00;97837.00;5034259;28;20041;-58
2022/11/04 07:02:59;;;;;;;58.58;35.85;;;;;;;10.60;100.00;97837.94;5035309;28;20041;-61
2022/11/04 07:05:24;;;;;;;55.70;30.40;;;;;;;10.37;100.00;97818.16;4999924;28;20509;-60
2022/11/04 07:07:50;;;;;;;50.72;29.77;;;;;;;10.41;100.00;97831.72;5034050;28;20068;-59
2022/11/04 07:10:16;;;;;;;55.42;30.67;;;;;;;10.31;100.00;97802.16;5034182;28;20046;-60
2022/11/04 07:12:42;;;;;;;45.67;29.05;;;;;;;10.52;100.00;97825.34;5034320;28;20041;-60
2022/11/04 07:15:08;;;;;;;51.45;29.13;;;;;;;10.59;100.00;97836.28;5034188;28;20045;-59
2022/11/04 07:17:34;;;;;;;51.63;27.27;;;;;;;10.61;100.00;97839.59;5032993;28;20037;-59
2022/11/04 07:20:00;;;;;;;52.95;30.25;;;;;;;10.60;100.00;97837.94;5031079;28;20593;-60
2022/11/04 07:22:26;;;;;;;48.35;29.58;;;;;;;10.51;100.00;97839.09;5033213;28;20044;-59
2022/11/04 07:24:51;;;;;;;54.50;32.33;;;;;;;10.50;100.00;97841.69;5033986;28;20111;-59
2022/11/04 07:27:17;;;;;;;51.03;30.73;;;;;;;10.49;100.00;97822.06;5034994;28;20056;-59
2022/11/04 07:29:42;;;;;;;57.38;33.00;;;;;;;10.52;100.00;97809.16;5035003;28;20060;-58
2022/11/04 07:32:08;;;;;;;54.90;29.90;;;;;;;10.70;100.00;97823.94;5034598;28;20472;-59
2022/11/04 07:34:34;;;;;;;55.78;31.65;;;;;;;10.70;100.00;97828.22;5034352;28;20396;-60
2022/11/04 07:36:59;;;;;;;56.40;33.03;;;;;;;10.68;100.00;97843.66;5033835;28;20552;-59
2022/11/04 07:39:25;;;;;;;56.92;32.42;;;;;;;10.72;100.00;97836.72;5033556;28;20049;-59
2022/11/04 07:41:51;;;;;;;55.25;31.40;;;;;;;10.76;100.00;97810.94;5017780;28;20076;-59
2022/11/04 07:44:17;;;;;;;59.13;32.85;;;;;;;10.80;100.00;97809.09;5035387;28;20450;-59
2022/11/04 07:46:42;;;;;;;54.92;29.95;;;;;;;10.68;100.00;97789.00;5033845;28;20569;-59
2022/11/04 07:49:08;;;;;;;61.05;32.03;;;;;;;10.72;100.00;97798.25;5033401;28;20045;-60
2022/11/04 07:51:34;;;;;;;51.03;30.17;;;;;;;10.84;100.00;97798.69;5033894;28;20446;-60
2022/11/04 07:53:59;;;;;;;57.85;30.20;;;;;;;10.71;100.00;97766.66;5035761;28;20381;-60
2022/11/04 07:56:26;;;;;;;55.05;30.13;;;;;;;10.83;100.00;97783.34;5017735;28;20479;-60
2022/11/04 07:58:52;;;;;;;52.80;29.42;;;;;;;10.91;100.00;97778.78;5033075;28;20068;-59
2022/11/04 08:01:22;;;;;;;52.33;28.98;;;;;;;10.88;100.00;97777.19;5033815;28;20552;-60
2022/11/04 08:03:51;;;;;;;57.55;31.60;;;;;;;10.89;100.00;97794.25;5033375;28;20041;-60
2022/11/04 08:06:18;;;;;;;57.60;31.35;;;;;;;10.78;100.00;97783.50;5033093;28;20047;-59
2022/11/04 08:08:44;;;;;;;52.47;30.73;;;;;;;10.93;100.00;97823.19;5033784;28;20064;-60
2022/11/04 08:11:13;;;;;;;48.50;28.55;;;;;;;10.79;100.00;97828.78;5032546;28;20041;-60
2022/11/04 08:13:39;;;;;;;57.90;31.10;;;;;;;10.92;100.00;97835.16;5034478;28;20040;-60
2022/11/04 08:16:08;;;;;;;51.45;29.73;;;;;;;10.85;100.00;97791.84;5033053;28;20371;-60
2022/11/04 08:18:34;;;;;;;59.78;30.90;;;;;;;10.92;100.00;97778.75;5033805;28;20582;-59
2022/11/04 08:21:01;;;;;;;47.05;28.95;;;;;;;10.86;100.00;97775.56;5032453;28;20477;-59
2022/11/04 08:23:27;;;;;;;52.45;29.08;;;;;;;11.02;100.00;97798.97;5031243;28;20045;-59
2022/11/04 08:25:53;;;;;;;54.03;32.13;;;;;;;11.06;100.00;97792.84;5034163;28;20033;-59
2022/11/04 08:28:19;;;;;;;53.70;30.83;;;;;;;11.09;100.00;97796.13;5032241;28;20037;-60
2022/11/04 08:31:01;;;;;;;47.03;28.38;;;;;;;11.11;100.00;97793.53;5033656;28;20110;-59
2022/11/04 08:33:28;;;;;;;48.95;27.13;;;;;;;11.13;100.00;97782.31;5017148;28;20044;-59
2022/11/04 08:35:57;;;;;;;49.63;29.05;;;;;;;10.98;100.00;97798.22;5032403;28;20045;-60
2022/11/04 08:38:23;;;;;;;48.42;27.95;;;;;;;10.87;100.00;97785.75;5034162;28;20037;-59
2022/11/04 08:40:49;;;;;;;52.15;30.88;;;;;;;10.86;100.00;97773.81;5033384;28;20814;-59
2022/11/04 08:43:14;;;;;;;51.42;31.98;;;;;;;10.93;100.00;97759.09;5031647;28;20105;-59
2022/11/04 08:45:43;;;;;;;55.22;32.55;;;;;;;10.94;100.00;97753.06;5031970;28;20076;-60
2022/11/04 08:48:09;;;;;;;51.13;30.85;;;;;;;10.93;100.00;97762.47;5033811;28;20257;-60
2022/11/04 08:50:34;;;;;;;48.38;26.85;;;;;;;11.12;100.00;97754.97;5034371;28;20069;-60
2022/11/04 08:53:01;;;;;;;53.55;30.80;;;;;;;11.04;100.00;97738.16;5016205;28;20060;-60
2022/11/04 08:55:31;;;;;;;61.05;32.95;;;;;;;11.18;100.00;97748.78;5032352;28;20067;-60
2022/11/04 08:57:58;;;;;;;53.40;29.42;;;;;;;11.16;100.00;97750.59;5038611;28;20112;-60
2022/11/04 09:00:23;;;;;;;47.28;28.02;;;;;;;11.13;100.00;97745.56;5038559;28;20566;-54
2022/11/04 09:02:49;;;;;;;54.33;28.48;;;;;;;11.13;100.00;97722.47;5021493;28;20083;-61
2022/11/04 09:05:15;;;;;;;55.25;26.85;;;;;;;11.18;100.00;97713.72;5036546;28;20048;-60
2022/11/04 09:07:41;;;;;;;51.33;27.17;;;;;;;11.28;100.00;97720.19;5009564;28;20455;-60
2022/11/04 09:10:09;;;;;;;55.97;29.48;;;;;;;11.26;100.00;97710.88;5012343;28;20053;-60
2022/11/04 09:12:35;;;;;;;49.30;27.50;;;;;;;11.54;100.00;97726.94;5000511;28;20054;-60
2022/11/04 09:15:01;;;;;;;49.60;27.55;;;;;;;11.59;100.00;97724.19;5001026;28;20046;-60
2022/11/04 09:17:26;;;;;;;54.83;30.33;;;;;;;11.47;100.00;97710.09;5012888;28;20053;-60
2022/11/04 09:19:53;;;;;;;53.08;28.63;;;;;;;11.26;100.00;97700.59;5014079;28;20050;-59
2022/11/04 09:22:18;;;;;;;53.13;29.27;;;;;;;11.29;100.00;97731.28;4983831;28;20100;-61
2022/11/04 09:24:44;;;;;;;52.42;28.10;;;;;;;11.30;100.00;97727.81;5013207;28;20042;-61
2022/11/04 09:27:09;;;;;;;46.35;29.60;;;;;;;11.26;100.00;97711.72;5013015;28;20587;-61
2022/11/04 09:29:36;;;;;;;49.60;28.30;;;;;;;11.24;100.00;97702.41;5006381;28;20045;-62
2022/11/04 09:32:02;;;;;;;45.90;27.55;;;;;;;11.13;100.00;97691.69;5010869;28;20108;-60
2022/11/04 09:34:29;;;;;;;46.97;26.15;;;;;;;10.99;100.00;97716.09;5012086;28;20042;-61
2022/11/04 09:36:55;;;;;;;46.97;26.30;;;;;;;11.03;100.00;97713.44;5012221;28;20029;-60
2022/11/04 09:39:24;;;;;;;47.40;26.40;;;;;;;11.07;100.00;97700.47;5014770;28;20692;-65
2022/11/04 09:41:55;;;;;;;39.17;24.15;;;;;;;11.13;100.00;97694.25;5014439;28;20610;-60
2022/11/04 09:44:39;;;;;;;50.58;26.00;;;;;;;11.14;100.00;97714.72;5013198;28;20554;-60
2022/11/04 09:47:09;;;;;;;47.33;24.70;;;;;;;11.17;100.00;97714.59;5012583;28;20056;-59
2022/11/04 09:49:38;;;;;;;43.83;25.13;;;;;;;11.28;100.00;97709.94;5016133;28;20034;-63
2022/11/04 09:52:12;;;;;;;45.20;24.23;;;;;;;11.19;100.00;97686.34;5014613;28;20480;-60
2022/11/04 09:54:49;;;;;;;43.47;23.60;;;;;;;11.13;100.00;97674.56;5013373;28;20041;-62
2022/11/04 09:57:17;;;;;;;40.03;26.15;;;;;;;11.21;100.00;97680.25;5018135;28;20053;-60
2022/11/04 09:59:44;;;;;;;46.10;25.45;;;;;;;11.11;100.00;97662.69;5003140;28;20475;-60
2022/11/04 10:02:10;;;;;;;44.65;24.75;;;;;;;11.15;100.00;97669.38;5015445;28;20754;-58
2022/11/04 10:05:13;;;;;;;44.22;26.13;;;;;;;11.17;100.00;97665.03;5015308;28;20041;-61
2022/11/04 10:07:45;;;;;;;40.53;24.15;;;;;;;11.15;100.00;97657.41;5024637;28;20080;-61
2022/11/04 10:10:21;;;;;;;42.33;26.13;;;;;;;10.85;100.00;97655.94;5035404;28;20318;-61
2022/11/04 10:13:08;;;;;;;47.40;26.35;;;;;;;10.89;100.00;97667.75;5037015;28;20075;-61
2022/11/04 10:15:41;;;;;;;47.60;26.67;;;;;;;10.80;100.00;97661.22;5036526;28;20042;-62
2022/11/04 10:18:24;;;;;;;44.80;24.45;;;;;;;10.87;100.00;97649.84;5037824;28;20072;-59
2022/11/04 10:21:13;;;;;;;48.50;24.73;;;;;;;10.79;100.00;97636.47;5035941;28;20069;-59
2022/11/04 10:23:57;;;;;;;46.78;26.23;;;;;;;10.75;100.00;97634.06;5033546;28;21013;-60
2022/11/04 10:26:35;;;;;;;55.15;26.98;;;;;;;10.65;100.00;97641.25;5016401;28;20125;-60
2022/11/04 10:29:12;;;;;;;41.65;22.75;;;;;;;10.77;100.00;97661.34;5034500;28;20045;-61
2022/11/04 10:31:40;;;;;;;41.05;23.77;;;;;;;10.65;100.00;97635.31;5025712;28;20354;-61
2022/11/04 10:34:14;;;;;;;44.40;24.63;;;;;;;10.75;100.00;97639.19;5034615;28;20476;-61
2022/11/04 10:36:40;;;;;;;36.88;21.92;;;;;;;10.65;100.00;97625.06;5034322;28;20045;-61
2022/11/04 10:39:25;;;;;;;32.40;19.95;;;;;;;10.69;100.00;97647.97;5036039;28;20430;-61
2022/11/04 10:41:51;;;;;;;;;;;;;;;10.70;100.00;97641.94;5037010;28;20048;-61
2022/11/04 10:44:22;;;;;;;36.60;18.50;;;;;;;10.68;100.00;97637.75;5034990;28;19921;-61
2022/11/04 10:47:14;;;;;;;25.92;16.02;;;;;;;10.53;100.00;97622.03;5021052;28;20911;-61
2022/11/04 10:50:03;;;;;;;24.20;16.10;;;;;;;10.69;100.00;97642.84;5024055;28;20059;-60
2022/11/04 10:52:35;;;;;;;21.33;14.13;;;;;;;10.62;100.00;97632.84;5035406;28;20048;-60
2022/11/04 10:55:00;;;;;;;14.45;9.98;;;;;;;10.58;100.00;97629.56;5035301;28;20045;-57
2022/11/04 10:57:26;;;;;;;17.15;12.13;;;;;;;10.47;100.00;97616.28;5015542;28;20088;-57
2022/11/04 10:59:53;;;;;;;20.15;13.50;;;;;;;10.46;100.00;97619.72;5021752;28;20049;-62
2022/11/04 11:02:36;;;;;;;17.50;12.32;;;;;;;10.46;100.00;97618.00;5035024;28;20586;-65
2022/11/04 11:05:15;;;;;;;18.70;11.88;;;;;;;10.49;100.00;97624.75;5034983;28;20045;-63
2022/11/04 11:07:41;;;;;;;16.00;10.68;;;;;;;10.44;100.00;97611.25;5036095;28;20079;-61
2022/11/04 11:10:16;;;;;;;13.82;9.73;;;;;;;10.37;100.00;97595.25;5037147;28;20115;-61
2022/11/04 11:12:49;;;;;;;18.30;10.93;;;;;;;10.29;100.00;97589.56;5036325;28;20199;-61
2022/11/04 11:15:35;;;;;;;20.73;12.60;;;;;;;10.30;100.00;97593.81;5036358;28;20127;-64
2022/11/04 11:18:07;;;;;;;16.58;10.27;;;;;;;10.18;100.00;97580.59;5035846;28;20053;-64
2022/11/04 11:20:36;;;;;;;21.70;10.93;;;;;;;10.15;100.00;97572.97;5036655;28;20036;-61
2022/11/04 11:23:08;;;;;;;24.58;13.20;;;;;;;10.32;100.00;97580.94;5037216;28;20064;-63
2022/11/04 11:25:41;;;;;;;21.27;11.38;;;;;;;10.32;100.00;97575.81;5035312;28;20108;-64
2022/11/04 11:28:20;;;;;;;18.40;11.93;;;;;;;10.38;100.00;97565.34;5035322;28;20041;-63
2022/11/04 11:30:45;;;;;;;16.30;10.43;;;;;;;10.44;100.00;97570.25;5033156;28;20476;-63
2022/11/04 11:33:28;;;;;;;14.98;10.13;;;;;;;10.47;100.00;97571.00;5028815;28;20056;-63
2022/11/04 11:36:13;;;;;;;14.02;9.55;;;;;;;10.56;100.00;97571.56;5034301;28;20413;-62
2022/11/04 11:38:52;;;;;;;14.38;10.30;;;;;;;10.56;100.00;97572.41;5033218;28;20136;-62
2022/11/04 11:41:22;;;;;;;20.95;11.40;;;;;;;10.44;100.00;97544.63;5031125;28;20052;-62
2022/11/04 11:43:52;;;;;;;15.30;12.30;;;;;;;10.46;100.00;97568.47;5020264;28;20492;-62
2022/11/04 11:46:53;;;;;;;11.77;8.15;;;;;;;10.43;100.00;97559.19;5035198;28;20582;-62
2022/11/04 11:49:29;;;;;;;10.68;7.82;;;;;;;10.51;100.00;97551.22;4940307;28;20133;-56
2022/11/04 11:52:15;;;;;;;9.52;6.13;;;;;;;10.53;100.00;97549.44;4938465;29;20165;-60
2022/11/04 11:54:43;;;;;;;6.65;5.43;;;;;;;10.33;100.00;97532.22;4939946;29;20227;-61
2022/11/04 11:57:30;;;;;;;6.80;5.82;;;;;;;10.47;100.00;97544.53;4923803;29;20127;-61
2022/11/04 12:00:08;;;;;;;8.68;6.38;;;;;;;10.52;100.00;97543.47;4940119;29;20051;-61
2022/11/04 12:02:41;;;;;;;18.95;7.78;;;;;;;10.57;100.00;97535.59;4939917;29;20047;-61